sensor_id;sensor_type;location;lat;lon;timestamp;temperature;humidity
2973;DHT22;1496;51.404;7.232;2022-11-23T00:00:26;7.10;99.90
2973;DHT22;1496;51.404;7.232;2022-11-23T00:02:56;7.10;99.90
2973;DHT22;1496;51.404;7.232;2022-11-23T00:05:25;7.10;99.90
2973;DHT22;1496;51.404;7.232;2022-11-23T00:07:51;7.10;99.90
2973;DHT22;1496;51.404;7.232;2022-11-23T00:10:17;7.10;99.90
2973;DHT22;1496;51.404;7.232;2022-11-23T00:12:43;7.10;99.90
2973;DHT22;1496;51.404;7.232;2022-11-23T00:15:11;7.20;99.90
2973;DHT22;1496;51.404;7.232;2022-11-23T00:17:37;7.20;99.90
2973;DHT22;1496;51.404;7.232;2022-11-23T00:20:04;7.20;99.90
2973;DHT22;1496;51.404;7.232;2022-11-23T00:22:30;7.20;99.90
2973;DHT22;1496;51.404;7.232;2022-11-23T00:24:56;7.20;99.90
2973;DHT22;1496;51.404;7.232;2022-11-23T00:27:21;7.20;99.90
2973;DHT22;1496;51.404;7.232;2022-11-23T00:29:47;7.20;99.90
2973;DHT22;1496;51.404;7.232;2022-11-23T00:32:13;7.30;99.90
2973;DHT22;1496;51.404;7.232;2022-11-23T00:34:39;7.30;99.90
2973;DHT22;1496;51.404;7.232;2022-11-23T00:37:05;7.30;99.90
2973;DHT22;1496;51.404;7.232;2022-11-23T00:39:30;7.30;99.90
2973;DHT22;1496;51.404;7.232;2022-11-23T00:41:56;7.40;99.90
2973;DHT22;1496;51.404;7.232;2022-11-23T00:44:21;7.40;99.90
2973;DHT22;1496;51.404;7.232;2022-11-23T00:46:48;7.40;99.90
2973;DHT22;1496;51.404;7.232;2022-11-23T00:49:14;7.40;99.90
2973;DHT22;1496;51.404;7.232;2022-11-23T00:51:40;7.50;99.90
2973;DHT22;1496;51.404;7.232;2022-11-23T00:54:07;7.50;99.90
2973;DHT22;1496;51.404;7.232;2022-11-23T00:56:34;7.50;99.90
2973;DHT22;1496;51.404;7.232;2022-11-23T00:59:01;7.50;99.90
2973;DHT22;1496;51.404;7.232;2022-11-23T01:01:29;7.50;99.90
2973;DHT22;1496;51.404;7.232;2022-11-23T01:03:59;7.50;99.90
2973;DHT22;1496;51.404;7.232;2022-11-23T01:06:30;7.50;99.90
2973;DHT22;1496;51.404;7.232;2022-11-23T01:08:58;7.50;99.90
2973;DHT22;1496;51.404;7.232;2022-11-23T01:11:26;7.50;99.90
2973;DHT22;1496;51.404;7.232;2022-11-23T01:13:53;7.50;99.90
2973;DHT22;1496;51.404;7.232;2022-11-23T01:16:22;7.60;99.90
2973;DHT22;1496;51.404;7.232;2022-11-23T01:18:55;7.60;99.90
2973;DHT22;1496;51.404;7.232;2022-11-23T01:21:22;7.50;99.90
2973;DHT22;1496;51.404;7.232;2022-11-23T01:23:48;7.60;99.90
2973;DHT22;1496;51.404;7.232;2022-11-23T01:26:14;7.60;99.90
2973;DHT22;1496;51.404;7.232;2022-11-23T01:28:40;7.60;99.90
2973;DHT22;1496;51.404;7.232;2022-11-23T01:31:09;7.60;99.90
2973;DHT22;1496;51.404;7.232;2022-11-23T01:33:35;7.60;99.90
2973;DHT22;1496;51.404;7.232;2022-11-23T01:36:16;7.60;99.90
2973;DHT22;1496;51.404;7.232;2022-11-23T01:38:42;7.70;99.90
2973;DHT22;1496;51.404;7.232;2022-11-23T01:41:11;7.70;99.90
2973;DHT22;1496;51.404;7.232;2022-11-23T01:43:37;7.70;99.90
2973;DHT22;1496;51.404;7.232;2022-11-23T01:46:04;7.60;99.90
2973;DHT22;1496;51.404;7.232;2022-11-23T01:48:38;7.70;99.90
2973;DHT22;1496;51.404;7.232;2022-11-23T01:51:07;7.60;99.90
2973;DHT22;1496;51.404;7.232;2022-11-23T01:53:36;7.70;99.90
2973;DHT22;1496;51.404;7.232;2022-11-23T01:56:04;7.70;99.90
2973;DHT22;1496;51.404;7.232;2022-11-23T01:58:33;7.70;99.90
2973;DHT22;1496;51.404;7.232;2022-11-23T02:01:03;7.60;99.90
2973;DHT22;1496;51.404;7.232;2022-11-23T02:07:30;7.70;99.90
2973;DHT22;1496;51.404;7.232;2022-11-23T02:09:57;7.70;99.90
2973;DHT22;1496;51.404;7.232;2022-11-23T02:12:23;7.80;99.90
2973;DHT22;1496;51.404;7.232;2022-11-23T02:14:49;7.80;99.90
2973;DHT22;1496;51.404;7.232;2022-11-23T02:17:18;7.80;99.90
2973;DHT22;1496;51.404;7.232;2022-11-23T02:28:12;7.90;99.90
2973;DHT22;1496;51.404;7.232;2022-11-23T02:30:39;7.90;99.90
2973;DHT22;1496;51.404;7.232;2022-11-23T02:33:05;7.90;99.90
2973;DHT22;1496;51.404;7.232;2022-11-23T02:35:31;7.90;99.90
2973;DHT22;1496;51.404;7.232;2022-11-23T02:37:58;7.90;23.00
2973;DHT22;1496;51.404;7.232;2022-11-23T02:40:31;7.90;1.00
2973;DHT22;1496;51.404;7.232;2022-11-23T02:42:58;7.90;99.90
2973;DHT22;1496;51.404;7.232;2022-11-23T02:45:35;8.00;99.90
2973;DHT22;1496;51.404;7.232;2022-11-23T02:48:01;8.00;99.90
2973;DHT22;1496;51.404;7.232;2022-11-23T02:50:26;8.00;99.90
2973;DHT22;1496;51.404;7.232;2022-11-23T02:52:52;8.00;1.00
2973;DHT22;1496;51.404;7.232;2022-11-23T02:55:18;8.00;99.90
2973;DHT22;1496;51.404;7.232;2022-11-23T02:57:44;8.00;99.90
2973;DHT22;1496;51.404;7.232;2022-11-23T03:00:11;8.00;99.90
2973;DHT22;1496;51.404;7.232;2022-11-23T03:02:37;8.00;20.60
2973;DHT22;1496;51.404;7.232;2022-11-23T03:05:03;8.00;1.00
2973;DHT22;1496;51.404;7.232;2022-11-23T03:07:28;8.00;1.00
2973;DHT22;1496;51.404;7.232;2022-11-23T03:09:56;8.00;1.00
2973;DHT22;1496;51.404;7.232;2022-11-23T03:12:23;8.00;1.00
2973;DHT22;1496;51.404;7.232;2022-11-23T03:14:49;8.00;1.00
2973;DHT22;1496;51.404;7.232;2022-11-23T03:17:16;8.00;99.90
2973;DHT22;1496;51.404;7.232;2022-11-23T03:19:43;8.00;99.90
2973;DHT22;1496;51.404;7.232;2022-11-23T03:22:11;8.00;99.90
2973;DHT22;1496;51.404;7.232;2022-11-23T03:24:37;8.00;99.90
2973;DHT22;1496;51.404;7.232;2022-11-23T03:27:04;8.00;1.00
2973;DHT22;1496;51.404;7.232;2022-11-23T03:29:31;7.80;1.00
2973;DHT22;1496;51.404;7.232;2022-11-23T03:32:01;7.80;1.00
2973;DHT22;1496;51.404;7.232;2022-11-23T03:34:26;7.70;99.90
2973;DHT22;1496;51.404;7.232;2022-11-23T03:36:52;7.70;1.00
2973;DHT22;1496;51.404;7.232;2022-11-23T03:39:18;7.70;21.40
2973;DHT22;1496;51.404;7.232;2022-11-23T03:42:13;7.70;1.00
2973;DHT22;1496;51.404;7.232;2022-11-23T03:44:39;7.60;1.00
2973;DHT22;1496;51.404;7.232;2022-11-23T03:47:04;7.60;12.30
2973;DHT22;1496;51.404;7.232;2022-11-23T03:49:32;7.60;99.90
2973;DHT22;1496;51.404;7.232;2022-11-23T03:51:58;7.60;99.90
2973;DHT22;1496;51.404;7.232;2022-11-23T03:54:25;7.60;99.90
2973;DHT22;1496;51.404;7.232;2022-11-23T03:56:51;7.60;99.90
2973;DHT22;1496;51.404;7.232;2022-11-23T03:59:17;7.60;99.90
2973;DHT22;1496;51.404;7.232;2022-11-23T04:01:42;7.60;99.90
2973;DHT22;1496;51.404;7.232;2022-11-23T04:04:16;7.60;99.90
2973;DHT22;1496;51.404;7.232;2022-11-23T04:07:12;7.60;99.90
2973;DHT22;1496;51.404;7.232;2022-11-23T04:09:44;7.60;99.90
2973;DHT22;1496;51.404;7.232;2022-11-23T04:12:27;7.60;99.90
2973;DHT22;1496;51.404;7.232;2022-11-23T04:14:53;7.50;99.90
2973;DHT22;1496;51.404;7.232;2022-11-23T04:17:18;7.50;99.90
2973;DHT22;1496;51.404;7.232;2022-11-23T04:19:44;7.50;99.90
2973;DHT22;1496;51.404;7.232;2022-11-23T04:22:13;7.50;99.90
2973;DHT22;1496;51.404;7.232;2022-11-23T04:24:41;7.50;99.90
2973;DHT22;1496;51.404;7.232;2022-11-23T04:27:07;7.50;99.90
2973;DHT22;1496;51.404;7.232;2022-11-23T04:29:33;7.50;99.90
2973;DHT22;1496;51.404;7.232;2022-11-23T04:31:58;7.50;99.90
2973;DHT22;1496;51.404;7.232;2022-11-23T04:34:24;7.50;99.90
2973;DHT22;1496;51.404;7.232;2022-11-23T04:36:52;7.40;99.90
2973;DHT22;1496;51.404;7.232;2022-11-23T04:39:22;7.50;99.90
2973;DHT22;1496;51.404;7.232;2022-11-23T04:42:14;7.50;99.90
2973;DHT22;1496;51.404;7.232;2022-11-23T04:44:46;7.50;99.90
2973;DHT22;1496;51.404;7.232;2022-11-23T04:47:12;7.50;99.90
2973;DHT22;1496;51.404;7.232;2022-11-23T04:49:38;7.50;99.90
2973;DHT22;1496;51.404;7.232;2022-11-23T04:52:04;7.40;99.90
2973;DHT22;1496;51.404;7.232;2022-11-23T04:54:35;7.50;99.90
2973;DHT22;1496;51.404;7.232;2022-11-23T04:57:03;7.40;99.90
2973;DHT22;1496;51.404;7.232;2022-11-23T04:59:29;7.40;99.90
2973;DHT22;1496;51.404;7.232;2022-11-23T05:01:55;7.40;99.90
2973;DHT22;1496;51.404;7.232;2022-11-23T05:04:47;7.40;99.90
2973;DHT22;1496;51.404;7.232;2022-11-23T05:07:16;7.40;99.90
2973;DHT22;1496;51.404;7.232;2022-11-23T05:09:46;7.40;99.90
2973;DHT22;1496;51.404;7.232;2022-11-23T05:12:17;7.40;99.90
2973;DHT22;1496;51.404;7.232;2022-11-23T05:14:43;7.40;99.90
2973;DHT22;1496;51.404;7.232;2022-11-23T05:17:10;7.40;99.90
2973;DHT22;1496;51.404;7.232;2022-11-23T05:19:37;7.40;99.90
2973;DHT22;1496;51.404;7.232;2022-11-23T05:22:02;7.40;99.90
2973;DHT22;1496;51.404;7.232;2022-11-23T05:24:31;7.40;99.90
2973;DHT22;1496;51.404;7.232;2022-11-23T05:27:06;7.40;99.90
2973;DHT22;1496;51.404;7.232;2022-11-23T05:29:32;7.40;99.90
2973;DHT22;1496;51.404;7.232;2022-11-23T05:31:57;7.40;99.90
2973;DHT22;1496;51.404;7.232;2022-11-23T05:34:23;7.40;99.90
2973;DHT22;1496;51.404;7.232;2022-11-23T05:36:49;7.40;99.90
2973;DHT22;1496;51.404;7.232;2022-11-23T05:39:15;7.40;99.90
2973;DHT22;1496;51.404;7.232;2022-11-23T05:41:40;7.40;99.90
2973;DHT22;1496;51.404;7.232;2022-11-23T05:44:20;7.40;99.90
2973;DHT22;1496;51.404;7.232;2022-11-23T05:46:46;7.40;99.90
2973;DHT22;1496;51.404;7.232;2022-11-23T05:49:12;7.40;99.90
2973;DHT22;1496;51.404;7.232;2022-11-23T05:51:38;7.40;99.90
2973;DHT22;1496;51.404;7.232;2022-11-23T05:54:05;7.40;99.90
2973;DHT22;1496;51.404;7.232;2022-11-23T05:56:44;7.40;99.90
2973;DHT22;1496;51.404;7.232;2022-11-23T05:59:16;7.30;99.90
2973;DHT22;1496;51.404;7.232;2022-11-23T06:01:47;7.30;99.90
2973;DHT22;1496;51.404;7.232;2022-11-23T06:04:21;7.30;99.90
2973;DHT22;1496;51.404;7.232;2022-11-23T06:06:47;7.40;99.90
2973;DHT22;1496;51.404;7.232;2022-11-23T06:09:13;7.30;99.90
2973;DHT22;1496;51.404;7.232;2022-11-23T06:11:43;7.20;99.90
2973;DHT22;1496;51.404;7.232;2022-11-23T06:14:13;7.30;99.90
2973;DHT22;1496;51.404;7.232;2022-11-23T06:16:39;7.30;99.90
2973;DHT22;1496;51.404;7.232;2022-11-23T06:19:26;7.30;99.90
2973;DHT22;1496;51.404;7.232;2022-11-23T06:21:55;7.40;99.90
2973;DHT22;1496;51.404;7.232;2022-11-23T06:24:22;7.40;99.90
2973;DHT22;1496;51.404;7.232;2022-11-23T06:27:01;7.40;99.90
2973;DHT22;1496;51.404;7.232;2022-11-23T06:29:26;7.40;99.90
2973;DHT22;1496;51.404;7.232;2022-11-23T06:31:52;7.40;99.90
2973;DHT22;1496;51.404;7.232;2022-11-23T06:34:19;7.30;99.90
2973;DHT22;1496;51.404;7.232;2022-11-23T06:36:44;7.30;99.90
2973;DHT22;1496;51.404;7.232;2022-11-23T06:39:10;7.30;99.90
2973;DHT22;1496;51.404;7.232;2022-11-23T06:41:36;7.40;99.90
2973;DHT22;1496;51.404;7.232;2022-11-23T06:44:03;7.40;99.90
2973;DHT22;1496;51.404;7.232;2022-11-23T06:46:37;7.30;99.90
2973;DHT22;1496;51.404;7.232;2022-11-23T06:49:03;7.40;99.90
2973;DHT22;1496;51.404;7.232;2022-11-23T06:51:29;7.40;99.90
2973;DHT22;1496;51.404;7.232;2022-11-23T06:53:56;7.40;99.90
2973;DHT22;1496;51.404;7.232;2022-11-23T06:56:23;7.40;99.90
2973;DHT22;1496;51.404;7.232;2022-11-23T06:58:49;7.40;99.90
2973;DHT22;1496;51.404;7.232;2022-11-23T07:01:19;7.30;99.90
2973;DHT22;1496;51.404;7.232;2022-11-23T07:03:59;7.20;99.90
2973;DHT22;1496;51.404;7.232;2022-11-23T07:06:30;7.30;99.90
2973;DHT22;1496;51.404;7.232;2022-11-23T07:08:59;7.30;99.90
2973;DHT22;1496;51.404;7.232;2022-11-23T07:11:39;7.20;99.90
2973;DHT22;1496;51.404;7.232;2022-11-23T07:14:05;7.30;99.90
2973;DHT22;1496;51.404;7.232;2022-11-23T07:16:32;7.30;99.90
2973;DHT22;1496;51.404;7.232;2022-11-23T07:18:57;7.30;99.90
2973;DHT22;1496;51.404;7.232;2022-11-23T07:21:23;7.30;99.90
2973;DHT22;1496;51.404;7.232;2022-11-23T07:23:49;7.30;99.90
2973;DHT22;1496;51.404;7.232;2022-11-23T07:26:15;7.20;99.90
2973;DHT22;1496;51.404;7.232;2022-11-23T07:28:41;7.30;99.90
2973;DHT22;1496;51.404;7.232;2022-11-23T07:31:06;7.20;99.90
2973;DHT22;1496;51.404;7.232;2022-11-23T07:33:32;7.20;99.90
2973;DHT22;1496;51.404;7.232;2022-11-23T07:36:00;7.10;99.90
2973;DHT22;1496;51.404;7.232;2022-11-23T07:38:30;7.10;99.90
2973;DHT22;1496;51.404;7.232;2022-11-23T07:40:57;7.10;99.90
2973;DHT22;1496;51.404;7.232;2022-11-23T07:43:44;7.10;99.90
2973;DHT22;1496;51.404;7.232;2022-11-23T07:46:09;7.10;99.90
2973;DHT22;1496;51.404;7.232;2022-11-23T07:48:35;7.10;99.90
2973;DHT22;1496;51.404;7.232;2022-11-23T07:51:01;7.10;99.90
2973;DHT22;1496;51.404;7.232;2022-11-23T07:53:26;7.10;99.90
2973;DHT22;1496;51.404;7.232;2022-11-23T07:55:56;7.20;99.90
2973;DHT22;1496;51.404;7.232;2022-11-23T07:58:23;7.20;99.90
2973;DHT22;1496;51.404;7.232;2022-11-23T08:00:49;7.20;99.90
2973;DHT22;1496;51.404;7.232;2022-11-23T08:03:15;7.30;99.90
2973;DHT22;1496;51.404;7.232;2022-11-23T08:05:40;7.30;99.90
2973;DHT22;1496;51.404;7.232;2022-11-23T08:08:06;7.40;99.90
2973;DHT22;1496;51.404;7.232;2022-11-23T08:10:32;7.40;99.90
2973;DHT22;1496;51.404;7.232;2022-11-23T08:13:07;7.50;99.90
2973;DHT22;1496;51.404;7.232;2022-11-23T08:15:34;7.50;99.90
2973;DHT22;1496;51.404;7.232;2022-11-23T08:18:01;7.50;99.90
2973;DHT22;1496;51.404;7.232;2022-11-23T08:20:28;7.50;99.90
2973;DHT22;1496;51.404;7.232;2022-11-23T08:22:54;7.50;99.90
2973;DHT22;1496;51.404;7.232;2022-11-23T08:25:21;7.60;1.00
2973;DHT22;1496;51.404;7.232;2022-11-23T08:27:47;7.70;99.90
2973;DHT22;1496;51.404;7.232;2022-11-23T08:30:13;7.70;1.00
2973;DHT22;1496;51.404;7.232;2022-11-23T08:32:39;7.80;54.00
2973;DHT22;1496;51.404;7.232;2022-11-23T08:35:05;7.90;1.00
2973;DHT22;1496;51.404;7.232;2022-11-23T08:37:31;8.00;1.00
2973;DHT22;1496;51.404;7.232;2022-11-23T08:39:57;8.00;99.90
2973;DHT22;1496;51.404;7.232;2022-11-23T08:42:22;8.00;99.90
2973;DHT22;1496;51.404;7.232;2022-11-23T08:44:48;8.10;99.90
2973;DHT22;1496;51.404;7.232;2022-11-23T08:47:13;8.10;99.90
2973;DHT22;1496;51.404;7.232;2022-11-23T08:49:39;8.10;99.90
2973;DHT22;1496;51.404;7.232;2022-11-23T08:52:04;8.10;99.90
2973;DHT22;1496;51.404;7.232;2022-11-23T08:54:30;8.20;99.90
2973;DHT22;1496;51.404;7.232;2022-11-23T08:56:56;8.20;99.90
2973;DHT22;1496;51.404;7.232;2022-11-23T08:59:22;8.20;99.90
2973;DHT22;1496;51.404;7.232;2022-11-23T09:01:47;8.30;99.90
2973;DHT22;1496;51.404;7.232;2022-11-23T09:04:13;8.30;99.90
2973;DHT22;1496;51.404;7.232;2022-11-23T09:06:39;8.30;99.90
2973;DHT22;1496;51.404;7.232;2022-11-23T09:09:04;8.30;99.90
2973;DHT22;1496;51.404;7.232;2022-11-23T09:11:30;8.30;99.90
2973;DHT22;1496;51.404;7.232;2022-11-23T09:13:55;8.40;99.90
2973;DHT22;1496;51.404;7.232;2022-11-23T09:16:21;8.40;99.90
2973;DHT22;1496;51.404;7.232;2022-11-23T09:18:47;8.50;99.90
2973;DHT22;1496;51.404;7.232;2022-11-23T09:21:14;8.50;99.90
2973;DHT22;1496;51.404;7.232;2022-11-23T09:23:39;8.50;99.90
2973;DHT22;1496;51.404;7.232;2022-11-23T09:26:05;8.50;99.90
2973;DHT22;1496;51.404;7.232;2022-11-23T09:28:32;8.60;99.90
2973;DHT22;1496;51.404;7.232;2022-11-23T09:31:00;8.60;99.90
2973;DHT22;1496;51.404;7.232;2022-11-23T09:33:26;8.60;99.90
2973;DHT22;1496;51.404;7.232;2022-11-23T09:35:59;8.60;99.90
2973;DHT22;1496;51.404;7.232;2022-11-23T09:38:26;8.70;99.90
2973;DHT22;1496;51.404;7.232;2022-11-23T09:41:22;8.70;99.90
2973;DHT22;1496;51.404;7.232;2022-11-23T09:44:03;8.70;99.90
2973;DHT22;1496;51.404;7.232;2022-11-23T09:46:56;8.80;99.90
2973;DHT22;1496;51.404;7.232;2022-11-23T09:49:53;8.80;99.90
2973;DHT22;1496;51.404;7.232;2022-11-23T09:52:23;8.80;99.90
2973;DHT22;1496;51.404;7.232;2022-11-23T09:54:52;8.90;99.90
2973;DHT22;1496;51.404;7.232;2022-11-23T09:57:22;8.90;99.90
2973;DHT22;1496;51.404;7.232;2022-11-23T09:59:56;8.90;99.90
2973;DHT22;1496;51.404;7.232;2022-11-23T10:02:25;8.90;99.90
2973;DHT22;1496;51.404;7.232;2022-11-23T10:04:54;8.90;99.90
2973;DHT22;1496;51.404;7.232;2022-11-23T10:07:27;8.90;99.90
2973;DHT22;1496;51.404;7.232;2022-11-23T10:18:56;8.90;99.90
2973;DHT22;1496;51.404;7.232;2022-11-23T10:21:51;8.90;99.90
2973;DHT22;1496;51.404;7.232;2022-11-23T10:24:22;8.90;99.90
2973;DHT22;1496;51.404;7.232;2022-11-23T10:26:50;9.00;99.90
2973;DHT22;1496;51.404;7.232;2022-11-23T10:29:21;9.00;99.90
2973;DHT22;1496;51.404;7.232;2022-11-23T10:31:49;9.00;99.90
2973;DHT22;1496;51.404;7.232;2022-11-23T10:34:57;8.90;99.90
2973;DHT22;1496;51.404;7.232;2022-11-23T10:37:23;9.00;99.90
2973;DHT22;1496;51.404;7.232;2022-11-23T10:39:49;9.00;99.90
2973;DHT22;1496;51.404;7.232;2022-11-23T10:44:50;9.00;99.90
2973;DHT22;1496;51.404;7.232;2022-11-23T10:47:39;9.20;99.90
2973;DHT22;1496;51.404;7.232;2022-11-23T10:50:38;9.20;99.90
2973;DHT22;1496;51.404;7.232;2022-11-23T10:55:50;9.20;99.90
2973;DHT22;1496;51.404;7.232;2022-11-23T10:58:40;9.30;99.90
2973;DHT22;1496;51.404;7.232;2022-11-23T11:01:15;9.30;99.90
2973;DHT22;1496;51.404;7.232;2022-11-23T11:03:41;9.30;99.90
2973;DHT22;1496;51.404;7.232;2022-11-23T11:06:07;9.20;99.90
2973;DHT22;1496;51.404;7.232;2022-11-23T11:08:35;9.20;99.90
2973;DHT22;1496;51.404;7.232;2022-11-23T11:11:07;9.30;99.90
2973;DHT22;1496;51.404;7.232;2022-11-23T11:16:45;9.40;99.90
2973;DHT22;1496;51.404;7.232;2022-11-23T11:19:30;9.30;99.90
2973;DHT22;1496;51.404;7.232;2022-11-23T11:21:58;9.30;99.90
2973;DHT22;1496;51.404;7.232;2022-11-23T11:24:31;9.40;99.90
2973;DHT22;1496;51.404;7.232;2022-11-23T11:27:00;9.30;99.90
2973;DHT22;1496;51.404;7.232;2022-11-23T11:29:46;9.40;99.90
2973;DHT22;1496;51.404;7.232;2022-11-23T11:37:47;9.50;99.90
2973;DHT22;1496;51.404;7.232;2022-11-23T11:40:44;9.40;99.90
2973;DHT22;1496;51.404;7.232;2022-11-23T11:46:33;9.30;99.90
2973;DHT22;1496;51.404;7.232;2022-11-23T11:48:38;9.20;99.90
2973;DHT22;1496;51.404;7.232;2022-11-23T11:54:35;8.90;99.90
2973;DHT22;1496;51.404;7.232;2022-11-23T11:57:08;8.90;99.90
2973;DHT22;1496;51.404;7.232;2022-11-23T11:59:38;9.10;99.90
2973;DHT22;1496;51.404;7.232;2022-11-23T12:02:25;9.20;99.90
2973;DHT22;1496;51.404;7.232;2022-11-23T12:07:34;9.40;99.90
2973;DHT22;1496;51.404;7.232;2022-11-23T12:10:11;9.50;99.90
2973;DHT22;1496;51.404;7.232;2022-11-23T12:12:38;9.50;99.90
2973;DHT22;1496;51.404;7.232;2022-11-23T12:15:05;9.50;99.90
2973;DHT22;1496;51.404;7.232;2022-11-23T12:23:23;9.00;99.90
2973;DHT22;1496;51.404;7.232;2022-11-23T12:26:23;9.00;99.90
2973;DHT22;1496;51.404;7.232;2022-11-23T12:29:09;9.00;99.90
2973;DHT22;1496;51.404;7.232;2022-11-23T12:31:46;9.00;99.90
2973;DHT22;1496;51.404;7.232;2022-11-23T12:37:30;9.20;99.90
2973;DHT22;1496;51.404;7.232;2022-11-23T12:40:27;9.10;99.90
2973;DHT22;1496;51.404;7.232;2022-11-23T12:43:00;9.20;99.90
2973;DHT22;1496;51.404;7.232;2022-11-23T12:45:55;9.10;99.90
2973;DHT22;1496;51.404;7.232;2022-11-23T12:59:10;9.20;99.90
2973;DHT22;1496;51.404;7.232;2022-11-23T13:01:38;9.10;99.90
2973;DHT22;1496;51.404;7.232;2022-11-23T13:07:17;9.30;99.90
2973;DHT22;1496;51.404;7.232;2022-11-23T13:09:56;9.40;99.90
2973;DHT22;1496;51.404;7.232;2022-11-23T13:12:47;9.40;99.90
2973;DHT22;1496;51.404;7.232;2022-11-23T13:18:44;9.40;99.90
2973;DHT22;1496;51.404;7.232;2022-11-23T13:21:30;9.50;99.90
2973;DHT22;1496;51.404;7.232;2022-11-23T13:23:58;9.40;99.90
2973;DHT22;1496;51.404;7.232;2022-11-23T13:26:26;9.30;99.90
2973;DHT22;1496;51.404;7.232;2022-11-23T13:28:58;9.30;99.90
2973;DHT22;1496;51.404;7.232;2022-11-23T13:31:28;9.20;99.90
2973;DHT22;1496;51.404;7.232;2022-11-23T13:33:58;9.20;99.90
2973;DHT22;1496;51.404;7.232;2022-11-23T13:38:57;9.20;99.90
2973;DHT22;1496;51.404;7.232;2022-11-23T13:46:35;8.90;99.90
2973;DHT22;1496;51.404;7.232;2022-11-23T13:49:01;8.80;99.90
2973;DHT22;1496;51.404;7.232;2022-11-23T13:51:29;8.80;99.90
2973;DHT22;1496;51.404;7.232;2022-11-23T13:56:43;8.80;99.90
2973;DHT22;1496;51.404;7.232;2022-11-23T14:04:33;8.80;99.90
2973;DHT22;1496;51.404;7.232;2022-11-23T14:07:03;8.80;99.90
2973;DHT22;1496;51.404;7.232;2022-11-23T14:10:06;8.90;99.90
2973;DHT22;1496;51.404;7.232;2022-11-23T14:15:19;8.70;99.90
2973;DHT22;1496;51.404;7.232;2022-11-23T14:28:48;8.60;99.90
2973;DHT22;1496;51.404;7.232;2022-11-23T14:31:36;8.60;99.90
2973;DHT22;1496;51.404;7.232;2022-11-23T14:37:27;8.60;99.90
2973;DHT22;1496;51.404;7.232;2022-11-23T14:40:11;8.60;99.90
2973;DHT22;1496;51.404;7.232;2022-11-23T14:42:43;8.50;99.90
2973;DHT22;1496;51.404;7.232;2022-11-23T14:45:13;8.50;99.90
2973;DHT22;1496;51.404;7.232;2022-11-23T14:47:39;8.60;99.90
2973;DHT22;1496;51.404;7.232;2022-11-23T14:50:15;8.60;99.90
2973;DHT22;1496;51.404;7.232;2022-11-23T14:52:45;8.60;99.90
2973;DHT22;1496;51.404;7.232;2022-11-23T14:55:20;8.40;99.90
2973;DHT22;1496;51.404;7.232;2022-11-23T14:57:47;8.50;99.90
2973;DHT22;1496;51.404;7.232;2022-11-23T15:00:34;8.50;99.90
2973;DHT22;1496;51.404;7.232;2022-11-23T15:03:07;8.50;99.90
2973;DHT22;1496;51.404;7.232;2022-11-23T15:05:34;8.50;99.90
2973;DHT22;1496;51.404;7.232;2022-11-23T15:08:05;8.60;99.90
2973;DHT22;1496;51.404;7.232;2022-11-23T15:13:22;8.50;99.90
2973;DHT22;1496;51.404;7.232;2022-11-23T15:15:53;8.40;99.90
2973;DHT22;1496;51.404;7.232;2022-11-23T15:18:34;8.40;99.90
2973;DHT22;1496;51.404;7.232;2022-11-23T15:21:24;8.30;99.90
2973;DHT22;1496;51.404;7.232;2022-11-23T15:23:52;8.40;99.90
2973;DHT22;1496;51.404;7.232;2022-11-23T15:26:22;8.50;99.90
2973;DHT22;1496;51.404;7.232;2022-11-23T15:28:49;8.60;99.90
2973;DHT22;1496;51.404;7.232;2022-11-23T15:33:48;8.50;99.90
2973;DHT22;1496;51.404;7.232;2022-11-23T15:36:22;8.60;99.90
2973;DHT22;1496;51.404;7.232;2022-11-23T15:38:49;8.60;99.90
2973;DHT22;1496;51.404;7.232;2022-11-23T15:41:16;8.60;99.90
2973;DHT22;1496;51.404;7.232;2022-11-23T15:43:56;8.60;99.90
2973;DHT22;1496;51.404;7.232;2022-11-23T15:46:26;8.50;99.90
2973;DHT22;1496;51.404;7.232;2022-11-23T15:48:53;8.50;99.90
2973;DHT22;1496;51.404;7.232;2022-11-23T15:51:24;8.50;99.90
2973;DHT22;1496;51.404;7.232;2022-11-23T15:53:51;8.50;99.90
2973;DHT22;1496;51.404;7.232;2022-11-23T15:58:47;8.60;99.90
2973;DHT22;1496;51.404;7.232;2022-11-23T16:01:14;8.50;99.90
2973;DHT22;1496;51.404;7.232;2022-11-23T16:03:47;8.50;99.90
2973;DHT22;1496;51.404;7.232;2022-11-23T16:06:21;8.50;99.90
2973;DHT22;1496;51.404;7.232;2022-11-23T16:08:47;8.50;99.90
2973;DHT22;1496;51.404;7.232;2022-11-23T16:11:27;8.40;99.90
2973;DHT22;1496;51.404;7.232;2022-11-23T16:14:10;8.30;99.90
2973;DHT22;1496;51.404;7.232;2022-11-23T16:16:36;8.40;99.90
2973;DHT22;1496;51.404;7.232;2022-11-23T16:19:05;8.30;99.90
2973;DHT22;1496;51.404;7.232;2022-11-23T16:21:44;8.30;99.90
2973;DHT22;1496;51.404;7.232;2022-11-23T16:24:22;8.30;99.90
2973;DHT22;1496;51.404;7.232;2022-11-23T16:26:48;8.20;99.90
2973;DHT22;1496;51.404;7.232;2022-11-23T16:29:21;8.10;99.90
2973;DHT22;1496;51.404;7.232;2022-11-23T16:31:54;8.10;99.90
2973;DHT22;1496;51.404;7.232;2022-11-23T16:34:21;8.00;99.90
2973;DHT22;1496;51.404;7.232;2022-11-23T16:36:46;7.90;99.90
2973;DHT22;1496;51.404;7.232;2022-11-23T16:39:12;7.90;99.90
2973;DHT22;1496;51.404;7.232;2022-11-23T16:41:38;7.90;99.90
2973;DHT22;1496;51.404;7.232;2022-11-23T16:44:04;7.80;99.90
2973;DHT22;1496;51.404;7.232;2022-11-23T16:46:33;7.80;99.90
2973;DHT22;1496;51.404;7.232;2022-11-23T16:48:59;7.70;99.90
2973;DHT22;1496;51.404;7.232;2022-11-23T16:51:25;7.70;99.90
2973;DHT22;1496;51.404;7.232;2022-11-23T16:53:51;7.70;99.90
2973;DHT22;1496;51.404;7.232;2022-11-23T16:56:22;7.60;99.90
2973;DHT22;1496;51.404;7.232;2022-11-23T16:58:49;7.60;99.90
2973;DHT22;1496;51.404;7.232;2022-11-23T17:01:23;7.50;99.90
2973;DHT22;1496;51.404;7.232;2022-11-23T17:03:49;7.50;99.90
2973;DHT22;1496;51.404;7.232;2022-11-23T17:06:16;7.50;99.90
2973;DHT22;1496;51.404;7.232;2022-11-23T17:08:48;7.40;99.90
2973;DHT22;1496;51.404;7.232;2022-11-23T17:11:16;7.40;99.90
2973;DHT22;1496;51.404;7.232;2022-11-23T17:13:44;7.40;99.90
2973;DHT22;1496;51.404;7.232;2022-11-23T17:16:15;7.40;99.90
2973;DHT22;1496;51.404;7.232;2022-11-23T17:18:42;7.30;1.00
2973;DHT22;1496;51.404;7.232;2022-11-23T17:21:08;7.30;1.00
2973;DHT22;1496;51.404;7.232;2022-11-23T17:23:33;7.30;1.00
2973;DHT22;1496;51.404;7.232;2022-11-23T17:25:59;7.30;1.00
2973;DHT22;1496;51.404;7.232;2022-11-23T17:28:25;7.30;1.00
2973;DHT22;1496;51.404;7.232;2022-11-23T17:30:52;7.30;1.00
2973;DHT22;1496;51.404;7.232;2022-11-23T17:33:18;7.30;1.00
2973;DHT22;1496;51.404;7.232;2022-11-23T17:35:44;7.30;1.00
2973;DHT22;1496;51.404;7.232;2022-11-23T17:38:16;7.20;1.00
2973;DHT22;1496;51.404;7.232;2022-11-23T17:40:44;7.30;1.00
2973;DHT22;1496;51.404;7.232;2022-11-23T17:43:13;7.20;1.00
2973;DHT22;1496;51.404;7.232;2022-11-23T17:45:39;7.30;1.00
2973;DHT22;1496;51.404;7.232;2022-11-23T17:48:05;7.20;99.90
2973;DHT22;1496;51.404;7.232;2022-11-23T17:50:31;7.20;1.00
2973;DHT22;1496;51.404;7.232;2022-11-23T17:52:56;7.20;1.00
2973;DHT22;1496;51.404;7.232;2022-11-23T17:55:22;7.20;99.90
2973;DHT22;1496;51.404;7.232;2022-11-23T17:57:48;7.20;1.00
2973;DHT22;1496;51.404;7.232;2022-11-23T18:00:19;7.10;1.00
2973;DHT22;1496;51.404;7.232;2022-11-23T18:02:45;7.10;1.00
2973;DHT22;1496;51.404;7.232;2022-11-23T18:05:11;7.10;1.00
2973;DHT22;1496;51.404;7.232;2022-11-23T18:07:37;7.10;1.00
2973;DHT22;1496;51.404;7.232;2022-11-23T18:10:03;7.10;1.00
2973;DHT22;1496;51.404;7.232;2022-11-23T18:12:29;7.10;1.00
2973;DHT22;1496;51.404;7.232;2022-11-23T18:14:55;7.00;1.00
2973;DHT22;1496;51.404;7.232;2022-11-23T18:17:20;7.00;1.00
2973;DHT22;1496;51.404;7.232;2022-11-23T18:19:47;7.00;1.00
2973;DHT22;1496;51.404;7.232;2022-11-23T18:22:13;7.00;1.00
2973;DHT22;1496;51.404;7.232;2022-11-23T18:24:39;7.00;1.00
2973;DHT22;1496;51.404;7.232;2022-11-23T18:27:05;7.00;1.00